sensor_id;sensor_type;location;lat;lon;timestamp;pressure;altitude;pressure_sealevel;temperature;humidity
44131;BME280;29792;48.726;9.248;2023-01-30T00:01:43;97524.16;;;-1.74;100.00
44131;BME280;29792;48.726;9.248;2023-01-30T00:04:09;97529.16;;;-1.72;100.00
44131;BME280;29792;48.726;9.248;2023-01-30T00:06:37;97520.81;;;-1.73;100.00
44131;BME280;29792;48.726;9.248;2023-01-30T00:09:02;97519.94;;;-1.72;100.00
44131;BME280;29792;48.726;9.248;2023-01-30T00:11:28;97514.91;;;-1.72;100.00
44131;BME280;29792;48.726;9.248;2023-01-30T00:13:54;97514.06;;;-1.71;100.00
44131;BME280;29792;48.726;9.248;2023-01-30T00:16:19;97506.47;;;-1.69;100.00
44131;BME280;29792;48.726;9.248;2023-01-30T00:18:44;97501.50;;;-1.71;100.00
44131;BME280;29792;48.726;9.248;2023-01-30T00:21:12;97493.97;;;-1.71;100.00
44131;BME280;29792;48.726;9.248;2023-01-30T00:23:38;97492.28;;;-1.70;100.00
44131;BME280;29792;48.726;9.248;2023-01-30T00:26:04;97478.91;;;-1.71;100.00
44131;BME280;29792;48.726;9.248;2023-01-30T00:28:30;97463.84;;;-1.71;100.00
44131;BME280;29792;48.726;9.248;2023-01-30T00:30:55;97468.88;;;-1.71;100.00
44131;BME280;29792;48.726;9.248;2023-01-30T00:33:22;97478.91;;;-1.71;100.00
44131;BME280;29792;48.726;9.248;2023-01-30T00:35:49;97485.56;;;-1.70;100.00
44131;BME280;29792;48.726;9.248;2023-01-30T00:38:15;97478.03;;;-1.70;100.00
44131;BME280;29792;48.726;9.248;2023-01-30T00:40:41;97477.97;;;-1.67;100.00
44131;BME280;29792;48.726;9.248;2023-01-30T00:43:09;97468.75;;;-1.66;100.00
44131;BME280;29792;48.726;9.248;2023-01-30T00:45:55;97459.53;;;-1.66;100.00
44131;BME280;29792;48.726;9.248;2023-01-30T00:48:38;97461.19;;;-1.65;100.00
44131;BME280;29792;48.726;9.248;2023-01-30T00:51:04;97469.56;;;-1.66;100.00
44131;BME280;29792;48.726;9.248;2023-01-30T00:53:29;97469.56;;;-1.66;100.00
44131;BME280;29792;48.726;9.248;2023-01-30T00:55:55;97472.91;;;-1.65;100.00
44131;BME280;29792;48.726;9.248;2023-01-30T00:58:21;97475.41;;;-1.65;100.00
44131;BME280;29792;48.726;9.248;2023-01-30T01:00:47;97484.59;;;-1.64;100.00
44131;BME280;29792;48.726;9.248;2023-01-30T01:03:13;97488.03;;;-1.68;100.00
44131;BME280;29792;48.726;9.248;2023-01-30T01:05:38;97494.72;;;-1.67;100.00
44131;BME280;29792;48.726;9.248;2023-01-30T01:08:03;97501.50;;;-1.71;100.00
44131;BME280;29792;48.726;9.248;2023-01-30T01:10:29;97506.59;;;-1.74;100.00
44131;BME280;29792;48.726;9.248;2023-01-30T01:12:55;97509.16;;;-1.77;100.00
44131;BME280;29792;48.726;9.248;2023-01-30T01:15:21;97518.44;;;-1.79;100.00
44131;BME280;29792;48.726;9.248;2023-01-30T01:17:48;97522.75;;;-1.85;100.00
44131;BME280;29792;48.726;9.248;2023-01-30T01:20:13;97524.44;;;-1.86;100.00
44131;BME280;29792;48.726;9.248;2023-01-30T01:22:39;97525.22;;;-1.84;100.00
44131;BME280;29792;48.726;9.248;2023-01-30T01:25:05;97524.38;;;-1.83;100.00
44131;BME280;29792;48.726;9.248;2023-01-30T01:27:30;97536.88;;;-1.80;100.00
44131;BME280;29792;48.726;9.248;2023-01-30T01:29:55;97541.78;;;-1.75;100.00
44131;BME280;29792;48.726;9.248;2023-01-30T01:32:21;97548.38;;;-1.71;100.00
44131;BME280;29792;48.726;9.248;2023-01-30T01:34:46;97550.81;;;-1.68;100.00
44131;BME280;29792;48.726;9.248;2023-01-30T01:37:12;97552.44;;;-1.66;100.00
44131;BME280;29792;48.726;9.248;2023-01-30T01:39:37;97554.09;;;-1.65;100.00
44131;BME280;29792;48.726;9.248;2023-01-30T01:42:23;97559.03;;;-1.62;100.00
44131;BME280;29792;48.726;9.248;2023-01-30T01:45:17;97552.44;;;-1.66;100.00
44131;BME280;29792;48.726;9.248;2023-01-30T01:50:26;97530.69;;;-1.67;100.00
44131;BME280;29792;48.726;9.248;2023-01-30T01:52:54;97521.50;;;-1.68;100.00
44131;BME280;29792;48.726;9.248;2023-01-30T01:55:22;97528.25;;;-1.70;100.00
44131;BME280;29792;48.726;9.248;2023-01-30T01:58:05;97529.97;;;-1.72;100.00
44131;BME280;29792;48.726;9.248;2023-01-30T02:00:32;97536.59;;;-1.69;100.00
44131;BME280;29792;48.726;9.248;2023-01-30T02:03:00;97541.63;;;-1.69;100.00
44131;BME280;29792;48.726;9.248;2023-01-30T02:05:30;97534.03;;;-1.66;100.00
44131;BME280;29792;48.726;9.248;2023-01-30T02:08:04;97539.00;;;-1.63;100.00
44131;BME280;29792;48.726;9.248;2023-01-30T02:13:23;97542.22;;;-1.58;100.00
44131;BME280;29792;48.726;9.248;2023-01-30T02:15:49;97533.78;;;-1.56;100.00
44131;BME280;29792;48.726;9.248;2023-01-30T02:18:15;97547.94;;;-1.53;100.00
44131;BME280;29792;48.726;9.248;2023-01-30T02:31:31;97526.97;;;-1.50;100.00
44131;BME280;29792;48.726;9.248;2023-01-30T02:39:10;97510.38;;;-1.58;100.00
44131;BME280;29792;48.726;9.248;2023-01-30T02:41:54;97504.59;;;-1.61;100.00
44131;BME280;29792;48.726;9.248;2023-01-30T02:44:28;97522.28;;;-1.64;100.00
44131;BME280;29792;48.726;9.248;2023-01-30T02:47:02;97523.22;;;-1.70;100.00
44131;BME280;29792;48.726;9.248;2023-01-30T02:49:31;97521.72;;;-1.77;100.00
44131;BME280;29792;48.726;9.248;2023-01-30T02:52:00;97488.31;;;-1.79;100.00
44131;BME280;29792;48.726;9.248;2023-01-30T02:54:27;97478.38;;;-1.83;100.00
44131;BME280;29792;48.726;9.248;2023-01-30T02:56:56;97481.81;;;-1.87;100.00
44131;BME280;29792;48.726;9.248;2023-01-30T02:59:33;97492.75;;;-1.90;100.00
44131;BME280;29792;48.726;9.248;2023-01-30T03:02:13;97525.38;;;-1.90;100.00
44131;BME280;29792;48.726;9.248;2023-01-30T03:07:44;97501.28;;;-1.97;100.00
44131;BME280;29792;48.726;9.248;2023-01-30T03:16:08;97468.22;;;-2.14;100.00
44131;BME280;29792;48.726;9.248;2023-01-30T03:18:39;97446.47;;;-2.15;100.00
44131;BME280;29792;48.726;9.248;2023-01-30T03:21:06;97446.53;;;-2.18;100.00
44131;BME280;29792;48.726;9.248;2023-01-30T03:23:32;97433.25;;;-2.22;100.00
44131;BME280;29792;48.726;9.248;2023-01-30T03:25:57;97435.81;;;-2.23;100.00
44131;BME280;29792;48.726;9.248;2023-01-30T03:28:23;97421.56;;;-2.23;100.00
44131;BME280;29792;48.726;9.248;2023-01-30T03:30:48;97414.06;;;-2.23;100.00
44131;BME280;29792;48.726;9.248;2023-01-30T03:33:14;97388.13;;;-2.23;100.00
44131;BME280;29792;48.726;9.248;2023-01-30T03:35:39;97373.06;;;-2.22;100.00
44131;BME280;29792;48.726;9.248;2023-01-30T03:38:05;97368.00;;;-2.20;100.00
44131;BME280;29792;48.726;9.248;2023-01-30T03:40:30;97372.91;;;-2.16;100.00
44131;BME280;29792;48.726;9.248;2023-01-30T03:42:56;97382.78;;;-2.10;100.00
44131;BME280;29792;48.726;9.248;2023-01-30T03:45:21;97390.22;;;-2.05;100.00
44131;BME280;29792;48.726;9.248;2023-01-30T03:47:46;97395.91;;;-1.99;100.00
44131;BME280;29792;48.726;9.248;2023-01-30T03:50:11;97396.59;;;-1.94;100.00
44131;BME280;29792;48.726;9.248;2023-01-30T03:52:37;97402.38;;;-1.90;100.00
44131;BME280;29792;48.726;9.248;2023-01-30T03:55:03;97401.44;;;-1.86;100.00
44131;BME280;29792;48.726;9.248;2023-01-30T03:57:29;97384.59;;;-1.81;100.00
44131;BME280;29792;48.726;9.248;2023-01-30T03:59:54;97390.34;;;-1.77;100.00
44131;BME280;29792;48.726;9.248;2023-01-30T04:02:19;97383.63;;;-1.77;100.00
44131;BME280;29792;48.726;9.248;2023-01-30T04:04:47;97383.59;;;-1.75;100.00
44131;BME280;29792;48.726;9.248;2023-01-30T04:07:13;97379.38;;;-1.73;100.00
44131;BME280;29792;48.726;9.248;2023-01-30T04:09:38;97381.84;;;-1.72;100.00
44131;BME280;29792;48.726;9.248;2023-01-30T04:12:04;97391.06;;;-1.72;100.00
44131;BME280;29792;48.726;9.248;2023-01-30T04:14:29;97388.47;;;-1.69;100.00
44131;BME280;29792;48.726;9.248;2023-01-30T04:16:54;97395.88;;;-1.63;100.00
44131;BME280;29792;48.726;9.248;2023-01-30T04:19:19;97401.63;;;-1.60;100.00
44131;BME280;29792;48.726;9.248;2023-01-30T04:21:45;97404.03;;;-1.55;100.00
44131;BME280;29792;48.726;9.248;2023-01-30T04:24:10;97403.03;;;-1.49;100.00
44131;BME280;29792;48.726;9.248;2023-01-30T04:26:36;97407.97;;;-1.46;100.00
44131;BME280;29792;48.726;9.248;2023-01-30T04:29:01;97414.56;;;-1.42;100.00
44131;BME280;29792;48.726;9.248;2023-01-30T04:31:27;97406.03;;;-1.37;100.00
44131;BME280;29792;48.726;9.248;2023-01-30T04:33:52;97398.38;;;-1.32;100.00
44131;BME280;29792;48.726;9.248;2023-01-30T04:36:17;97395.88;;;-1.32;100.00
44131;BME280;29792;48.726;9.248;2023-01-30T04:38:42;97392.53;;;-1.33;100.00
44131;BME280;29792;48.726;9.248;2023-01-30T04:41:08;97384.97;;;-1.31;100.00
44131;BME280;29792;48.726;9.248;2023-01-30T04:43:33;97389.13;;;-1.30;100.00
44131;BME280;29792;48.726;9.248;2023-01-30T04:45:58;97394.06;;;-1.27;100.00
44131;BME280;29792;48.726;9.248;2023-01-30T04:48:24;97392.31;;;-1.25;100.00
44131;BME280;29792;48.726;9.248;2023-01-30T04:50:51;97384.75;;;-1.24;100.00
44131;BME280;29792;48.726;9.248;2023-01-30T04:53:18;97398.16;;;-1.23;100.00
44131;BME280;29792;48.726;9.248;2023-01-30T04:55:45;97405.56;;;-1.20;100.00
44131;BME280;29792;48.726;9.248;2023-01-30T04:58:10;97395.47;;;-1.17;100.00
44131;BME280;29792;48.726;9.248;2023-01-30T05:00:35;97397.91;;;-1.14;100.00
44131;BME280;29792;48.726;9.248;2023-01-30T05:03:01;97391.06;;;-1.10;100.00
44131;BME280;29792;48.726;9.248;2023-01-30T05:05:26;97396.00;;;-1.06;100.00
44131;BME280;29792;48.726;9.248;2023-01-30T05:07:53;97389.19;;;-1.02;100.00
44131;BME280;29792;48.726;9.248;2023-01-30T05:10:18;97384.03;;;-0.98;100.00
44131;BME280;29792;48.726;9.248;2023-01-30T05:12:44;97377.34;;;-0.99;100.00
44131;BME280;29792;48.726;9.248;2023-01-30T05:15:10;97377.31;;;-0.97;100.00
44131;BME280;29792;48.726;9.248;2023-01-30T05:17:36;97373.91;;;-0.96;100.00
44131;BME280;29792;48.726;9.248;2023-01-30T05:20:02;97376.34;;;-0.93;100.00
44131;BME280;29792;48.726;9.248;2023-01-30T05:22:28;97363.69;;;-0.90;100.00
44131;BME280;29792;48.726;9.248;2023-01-30T05:24:53;97346.94;;;-0.90;100.00
44131;BME280;29792;48.726;9.248;2023-01-30T05:27:18;97353.50;;;-0.86;100.00
44131;BME280;29792;48.726;9.248;2023-01-30T05:29:44;97346.81;;;-0.87;100.00
44131;BME280;29792;48.726;9.248;2023-01-30T05:32:11;97335.94;;;-0.87;100.00
44131;BME280;29792;48.726;9.248;2023-01-30T05:34:38;97332.56;;;-0.86;100.00
44131;BME280;29792;48.726;9.248;2023-01-30T05:37:03;97340.03;;;-0.83;100.00
44131;BME280;29792;48.726;9.248;2023-01-30T05:39:28;97335.81;;;-0.83;100.00
44131;BME280;29792;48.726;9.248;2023-01-30T05:41:53;97349.16;;;-0.81;100.00
44131;BME280;29792;48.726;9.248;2023-01-30T05:44:19;97337.41;;;-0.80;100.00
44131;BME280;29792;48.726;9.248;2023-01-30T05:46:44;97341.44;;;-0.74;100.00
44131;BME280;29792;48.726;9.248;2023-01-30T05:49:09;97328.75;;;-0.71;100.00
44131;BME280;29792;48.726;9.248;2023-01-30T05:51:34;97329.59;;;-0.71;100.00
44131;BME280;29792;48.726;9.248;2023-01-30T05:54:00;97334.56;;;-0.69;100.00
44131;BME280;29792;48.726;9.248;2023-01-30T05:56:25;97335.41;;;-0.69;100.00
44131;BME280;29792;48.726;9.248;2023-01-30T05:58:55;97332.84;;;-0.67;100.00
44131;BME280;29792;48.726;9.248;2023-01-30T06:01:21;97339.53;;;-0.66;100.00
44131;BME280;29792;48.726;9.248;2023-01-30T06:03:48;97344.50;;;-0.65;100.00
44131;BME280;29792;48.726;9.248;2023-01-30T06:06:13;97338.66;;;-0.65;100.00
44131;BME280;29792;48.726;9.248;2023-01-30T06:08:39;97340.28;;;-0.64;100.00
44131;BME280;29792;48.726;9.248;2023-01-30T06:11:07;97345.31;;;-0.64;100.00
44131;BME280;29792;48.726;9.248;2023-01-30T06:13:33;97338.59;;;-0.64;100.00
44131;BME280;29792;48.726;9.248;2023-01-30T06:15:58;97336.91;;;-0.63;100.00
44131;BME280;29792;48.726;9.248;2023-01-30T06:18:23;97337.00;;;-0.66;100.00
44131;BME280;29792;48.726;9.248;2023-01-30T06:20:50;97343.72;;;-0.67;100.00
44131;BME280;29792;48.726;9.248;2023-01-30T06:23:16;97342.03;;;-0.66;100.00
44131;BME280;29792;48.726;9.248;2023-01-30T06:25:48;97334.44;;;-0.65;100.00
44131;BME280;29792;48.726;9.248;2023-01-30T06:28:15;97333.47;;;-0.61;100.00
44131;BME280;29792;48.726;9.248;2023-01-30T06:30:40;97331.75;;;-0.59;100.00
44131;BME280;29792;48.726;9.248;2023-01-30T06:33:06;97317.56;;;-0.61;100.00
44131;BME280;29792;48.726;9.248;2023-01-30T06:35:32;97320.97;;;-0.64;100.00
44131;BME280;29792;48.726;9.248;2023-01-30T06:37:58;97319.41;;;-0.66;100.00
44131;BME280;29792;48.726;9.248;2023-01-30T06:40:23;97313.59;;;-0.68;100.00
44131;BME280;29792;48.726;9.248;2023-01-30T06:42:48;97309.41;;;-0.69;100.00
44131;BME280;29792;48.726;9.248;2023-01-30T06:45:15;97303.63;;;-0.71;100.00
44131;BME280;29792;48.726;9.248;2023-01-30T06:47:45;97291.84;;;-0.71;100.00
44131;BME280;29792;48.726;9.248;2023-01-30T06:50:11;97296.06;;;-0.71;100.00
44131;BME280;29792;48.726;9.248;2023-01-30T06:52:41;97301.06;;;-0.70;100.00
44131;BME280;29792;48.726;9.248;2023-01-30T06:55:08;97298.50;;;-0.68;100.00
44131;BME280;29792;48.726;9.248;2023-01-30T06:57:33;97296.75;;;-0.66;100.00
44131;BME280;29792;48.726;9.248;2023-01-30T06:59:58;97293.38;;;-0.65;100.00
44131;BME280;29792;48.726;9.248;2023-01-30T07:02:24;97284.22;;;-0.68;100.00
44131;BME280;29792;48.726;9.248;2023-01-30T07:04:49;97283.41;;;-0.68;100.00
44131;BME280;29792;48.726;9.248;2023-01-30T07:07:14;97283.31;;;-0.65;100.00
44131;BME280;29792;48.726;9.248;2023-01-30T07:09:39;97296.66;;;-0.63;100.00
44131;BME280;29792;48.726;9.248;2023-01-30T07:12:05;97316.72;;;-0.62;100.00
44131;BME280;29792;48.726;9.248;2023-01-30T07:14:30;97318.22;;;-0.56;100.00
44131;BME280;29792;48.726;9.248;2023-01-30T07:16:55;97317.31;;;-0.54;100.00
44131;BME280;29792;48.726;9.248;2023-01-30T07:19:20;97322.22;;;-0.49;100.00
44131;BME280;29792;48.726;9.248;2023-01-30T07:21:46;97322.06;;;-0.45;100.00
44131;BME280;29792;48.726;9.248;2023-01-30T07:24:11;97321.03;;;-0.39;100.00
44131;BME280;29792;48.726;9.248;2023-01-30T07:26:36;97338.53;;;-0.34;100.00
44131;BME280;29792;48.726;9.248;2023-01-30T07:29:02;97335.88;;;-0.31;100.00
44131;BME280;29792;48.726;9.248;2023-01-30T07:31:27;97333.31;;;-0.30;100.00
44131;BME280;29792;48.726;9.248;2023-01-30T07:33:52;97334.97;;;-0.29;100.00
44131;BME280;29792;48.726;9.248;2023-01-30T07:36:17;97339.97;;;-0.27;100.00
44131;BME280;29792;48.726;9.248;2023-01-30T07:38:42;97329.91;;;-0.27;99.69
44131;BME280;29792;48.726;9.248;2023-01-30T07:41:08;97339.94;;;-0.26;99.15
44131;BME280;29792;48.726;9.248;2023-01-30T07:43:33;97339.88;;;-0.24;100.00
44131;BME280;29792;48.726;9.248;2023-01-30T07:45:59;97333.91;;;-0.22;99.53
44131;BME280;29792;48.726;9.248;2023-01-30T07:48:24;97349.00;;;-0.22;99.84
44131;BME280;29792;48.726;9.248;2023-01-30T07:50:49;97343.16;;;-0.22;100.00
44131;BME280;29792;48.726;9.248;2023-01-30T07:53:16;97344.72;;;-0.18;99.40
44131;BME280;29792;48.726;9.248;2023-01-30T07:55:43;97349.59;;;-0.14;100.00
44131;BME280;29792;48.726;9.248;2023-01-30T07:58:12;97347.81;;;-0.10;100.00
44131;BME280;29792;48.726;9.248;2023-01-30T08:00:39;97331.75;;;-0.08;99.91
44131;BME280;29792;48.726;9.248;2023-01-30T08:03:04;97334.19;;;-0.05;100.00
44131;BME280;29792;48.726;9.248;2023-01-30T08:05:29;97329.81;;;0.00;99.44
44131;BME280;29792;48.726;9.248;2023-01-30T08:07:55;97332.16;;;0.07;99.27
44131;BME280;29792;48.726;9.248;2023-01-30T08:10:20;97322.78;;;0.10;99.11
44131;BME280;29792;48.726;9.248;2023-01-30T08:12:48;97324.28;;;0.16;99.66
44131;BME280;29792;48.726;9.248;2023-01-30T08:15:14;97339.28;;;0.19;99.07
44131;BME280;29792;48.726;9.248;2023-01-30T08:17:39;97340.16;;;0.18;98.49
44131;BME280;29792;48.726;9.248;2023-01-30T08:20:05;97354.38;;;0.19;97.82
44131;BME280;29792;48.726;9.248;2023-01-30T08:22:30;97366.06;;;0.21;98.15
44131;BME280;29792;48.726;9.248;2023-01-30T08:24:55;97365.16;;;0.24;97.89
44131;BME280;29792;48.726;9.248;2023-01-30T08:27:21;97365.03;;;0.27;98.63
44131;BME280;29792;48.726;9.248;2023-01-30T08:29:46;97341.44;;;0.29;98.57
44131;BME280;29792;48.726;9.248;2023-01-30T08:32:11;97354.69;;;0.34;98.90
44131;BME280;29792;48.726;9.248;2023-01-30T08:34:36;97360.28;;;0.43;99.45
44131;BME280;29792;48.726;9.248;2023-01-30T08:37:02;97350.13;;;0.46;99.13
44131;BME280;29792;48.726;9.248;2023-01-30T08:39:27;97331.66;;;0.45;98.83
44131;BME280;29792;48.726;9.248;2023-01-30T08:41:52;97323.22;;;0.46;98.36
44131;BME280;29792;48.726;9.248;2023-01-30T08:44:17;97334.09;;;0.48;99.01
44131;BME280;29792;48.726;9.248;2023-01-30T08:46:43;97338.84;;;0.56;99.40
44131;BME280;29792;48.726;9.248;2023-01-30T08:49:09;97335.28;;;0.61;99.68
44131;BME280;29792;48.726;9.248;2023-01-30T08:51:34;97329.97;;;0.69;99.54
44131;BME280;29792;48.726;9.248;2023-01-30T08:54:00;97317.09;;;0.76;99.87
44131;BME280;29792;48.726;9.248;2023-01-30T08:56:25;97321.81;;;0.86;99.46
44131;BME280;29792;48.726;9.248;2023-01-30T08:58:50;97309.78;;;0.92;98.72
44131;BME280;29792;48.726;9.248;2023-01-30T09:01:16;97309.63;;;0.97;98.49
44131;BME280;29792;48.726;9.248;2023-01-30T09:03:41;97302.81;;;0.99;98.49
44131;BME280;29792;48.726;9.248;2023-01-30T09:06:07;97288.50;;;0.99;97.46
44131;BME280;29792;48.726;9.248;2023-01-30T09:08:32;97294.84;;;1.09;97.42
44131;BME280;29792;48.726;9.248;2023-01-30T09:10:59;97274.56;;;1.12;96.99
44131;BME280;29792;48.726;9.248;2023-01-30T09:13:25;97255.06;;;1.16;96.83
44131;BME280;29792;48.726;9.248;2023-01-30T09:15:50;97263.09;;;1.26;97.58
44131;BME280;29792;48.726;9.248;2023-01-30T09:18:16;97269.97;;;1.44;98.09
44131;BME280;29792;48.726;9.248;2023-01-30T09:20:41;97260.00;;;1.61;97.56
44131;BME280;29792;48.726;9.248;2023-01-30T09:23:06;97268.22;;;1.86;97.56
44131;BME280;29792;48.726;9.248;2023-01-30T09:25:31;97269.41;;;2.18;96.98
44131;BME280;29792;48.726;9.248;2023-01-30T09:27:57;97263.75;;;2.32;95.63
44131;BME280;29792;48.726;9.248;2023-01-30T09:30:22;97259.31;;;2.37;94.29
44131;BME280;29792;48.726;9.248;2023-01-30T09:32:47;97250.72;;;2.41;94.09
44131;BME280;29792;48.726;9.248;2023-01-30T09:35:13;97256.38;;;2.46;93.46
44131;BME280;29792;48.726;9.248;2023-01-30T09:37:45;97254.06;;;2.42;93.25
44131;BME280;29792;48.726;9.248;2023-01-30T09:40:13;97268.75;;;2.34;92.96
44131;BME280;29792;48.726;9.248;2023-01-30T09:43:01;97261.50;;;2.26;92.93
44131;BME280;29792;48.726;9.248;2023-01-30T09:48:15;97260.84;;;2.21;93.37
44131;BME280;29792;48.726;9.248;2023-01-30T09:51:09;97255.13;;;2.17;93.49
44131;BME280;29792;48.726;9.248;2023-01-30T09:56:32;97249.25;;;2.17;94.86
44131;BME280;29792;48.726;9.248;2023-01-30T09:59:00;97250.69;;;2.22;94.83
44131;BME280;29792;48.726;9.248;2023-01-30T10:02:05;97232.66;;;2.30;95.98
44131;BME280;29792;48.726;9.248;2023-01-30T10:04:43;97214.34;;;2.44;96.00
44131;BME280;29792;48.726;9.248;2023-01-30T10:09:53;97213.53;;;2.62;96.12
44131;BME280;29792;48.726;9.248;2023-01-30T10:12:30;97218.06;;;2.74;95.52
44131;BME280;29792;48.726;9.248;2023-01-30T10:15:22;97209.69;;;2.91;95.35
44131;BME280;29792;48.726;9.248;2023-01-30T10:18:22;97199.94;;;3.00;94.63
44131;BME280;29792;48.726;9.248;2023-01-30T10:24:01;97179.28;;;3.10;94.79
44131;BME280;29792;48.726;9.248;2023-01-30T10:26:29;97184.19;;;3.13;95.08
44131;BME280;29792;48.726;9.248;2023-01-30T10:28:59;97175.56;;;3.17;95.06
44131;BME280;29792;48.726;9.248;2023-01-30T10:31:29;97188.06;;;3.20;94.64
44131;BME280;29792;48.726;9.248;2023-01-30T10:34:02;97201.47;;;3.22;94.61
44131;BME280;29792;48.726;9.248;2023-01-30T10:36:50;97187.94;;;3.23;94.64
44131;BME280;29792;48.726;9.248;2023-01-30T10:39:37;97188.00;;;3.21;94.71
44131;BME280;29792;48.726;9.248;2023-01-30T10:42:14;97187.25;;;3.19;94.94
44131;BME280;29792;48.726;9.248;2023-01-30T10:44:44;97192.31;;;3.19;94.96
44131;BME280;29792;48.726;9.248;2023-01-30T10:49:58;97177.81;;;3.23;95.38
44131;BME280;29792;48.726;9.248;2023-01-30T10:52:36;97174.09;;;3.30;95.52
44131;BME280;29792;48.726;9.248;2023-01-30T10:55:46;97179.81;;;3.33;95.94
44131;BME280;29792;48.726;9.248;2023-01-30T10:58:33;97179.81;;;3.33;95.22
44131;BME280;29792;48.726;9.248;2023-01-30T11:01:23;97187.41;;;3.33;95.94
44131;BME280;29792;48.726;9.248;2023-01-30T11:03:56;97186.38;;;3.37;96.16
44131;BME280;29792;48.726;9.248;2023-01-30T11:06:25;97190.53;;;3.38;96.60
44131;BME280;29792;48.726;9.248;2023-01-30T11:08:52;97176.91;;;3.41;96.14
44131;BME280;29792;48.726;9.248;2023-01-30T11:11:48;97178.47;;;3.43;96.69
44131;BME280;29792;48.726;9.248;2023-01-30T11:14:15;97186.13;;;3.42;96.43
44131;BME280;29792;48.726;9.248;2023-01-30T11:16:49;97189.72;;;3.38;96.15
44131;BME280;29792;48.726;9.248;2023-01-30T11:19:17;97184.78;;;3.35;96.51
44131;BME280;29792;48.726;9.248;2023-01-30T11:21:47;97181.50;;;3.33;96.95
44131;BME280;29792;48.726;9.248;2023-01-30T11:24:17;97187.41;;;3.33;97.68
44131;BME280;29792;48.726;9.248;2023-01-30T11:26:43;97183.31;;;3.31;96.68
44131;BME280;29792;48.726;9.248;2023-01-30T11:29:31;97179.34;;;3.25;97.44
44131;BME280;29792;48.726;9.248;2023-01-30T11:32:05;97167.00;;;3.19;97.74
44131;BME280;29792;48.726;9.248;2023-01-30T11:34:35;97178.00;;;3.18;97.15
44131;BME280;29792;48.726;9.248;2023-01-30T11:37:25;97183.97;;;3.17;97.33
44131;BME280;29792;48.726;9.248;2023-01-30T11:39:52;97179.19;;;3.11;97.91
44131;BME280;29792;48.726;9.248;2023-01-30T11:42:24;97177.63;;;3.08;98.99
44131;BME280;29792;48.726;9.248;2023-01-30T11:44:59;97170.28;;;3.04;99.29
44131;BME280;29792;48.726;9.248;2023-01-30T11:47:26;97177.09;;;3.02;99.57
44131;BME280;29792;48.726;9.248;2023-01-30T11:49:54;97183.97;;;3.00;99.94
44131;BME280;29792;48.726;9.248;2023-01-30T11:52:32;97204.41;;;2.95;100.00
44131;BME280;29792;48.726;9.248;2023-01-30T11:55:04;97184.59;;;2.86;100.00
44131;BME280;29792;48.726;9.248;2023-01-30T11:57:52;97179.00;;;2.80;100.00
44131;BME280;29792;48.726;9.248;2023-01-30T12:00:25;97180.94;;;2.75;100.00
44131;BME280;29792;48.726;9.248;2023-01-30T12:02:52;97172.06;;;2.66;100.00
44131;BME280;29792;48.726;9.248;2023-01-30T12:08:20;97181.97;;;2.52;100.00
44131;BME280;29792;48.726;9.248;2023-01-30T12:10:53;97171.19;;;2.48;100.00
44131;BME280;29792;48.726;9.248;2023-01-30T12:13:39;97164.72;;;2.43;100.00
44131;BME280;29792;48.726;9.248;2023-01-30T12:16:15;97170.78;;;2.39;100.00
44131;BME280;29792;48.726;9.248;2023-01-30T12:22:01;97159.31;;;2.32;100.00
44131;BME280;29792;48.726;9.248;2023-01-30T12:24:38;97166.13;;;2.29;100.00
44131;BME280;29792;48.726;9.248;2023-01-30T12:27:36;97161.09;;;2.29;100.00
44131;BME280;29792;48.726;9.248;2023-01-30T12:30:37;97160.31;;;2.27;100.00
44131;BME280;29792;48.726;9.248;2023-01-30T12:33:11;97150.50;;;2.21;100.00
44131;BME280;29792;48.726;9.248;2023-01-30T12:38:45;97152.47;;;2.15;100.00
44131;BME280;29792;48.726;9.248;2023-01-30T12:46:59;97160.94;;;2.14;100.00
44131;BME280;29792;48.726;9.248;2023-01-30T12:57:53;97182.81;;;2.15;100.00
44131;BME280;29792;48.726;9.248;2023-01-30T13:03:43;97196.25;;;2.15;100.00
44131;BME280;29792;48.726;9.248;2023-01-30T13:17:19;97189.19;;;2.03;100.00
44131;BME280;29792;48.726;9.248;2023-01-30T13:19:55;97199.44;;;2.00;100.00
44131;BME280;29792;48.726;9.248;2023-01-30T13:22:29;97185.31;;;1.96;100.00
44131;BME280;29792;48.726;9.248;2023-01-30T13:27:58;97195.56;;;1.93;100.00
44131;BME280;29792;48.726;9.248;2023-01-30T13:30:28;97201.47;;;1.92;100.00
44131;BME280;29792;48.726;9.248;2023-01-30T13:33:00;97207.41;;;1.91;100.00
44131;BME280;29792;48.726;9.248;2023-01-30T13:35:33;97205.91;;;1.87;100.00
44131;BME280;29792;48.726;9.248;2023-01-30T13:38:03;97219.44;;;1.86;100.00
44131;BME280;29792;48.726;9.248;2023-01-30T13:40:37;97224.38;;;1.87;100.00
44131;BME280;29792;48.726;9.248;2023-01-30T13:43:19;97221.75;;;1.90;100.00
44131;BME280;29792;48.726;9.248;2023-01-30T13:45:48;97228.22;;;1.96;100.00
44131;BME280;29792;48.726;9.248;2023-01-30T13:51:21;97238.97;;;2.01;100.00
44131;BME280;29792;48.726;9.248;2023-01-30T13:56:49;97249.81;;;2.03;100.00
44131;BME280;29792;48.726;9.248;2023-01-30T14:12:50;97275.22;;;2.00;100.00
44131;BME280;29792;48.726;9.248;2023-01-30T14:20:21;97274.34;;;2.01;100.00
44131;BME280;29792;48.726;9.248;2023-01-30T14:22:56;97271.75;;;2.03;100.00
44131;BME280;29792;48.726;9.248;2023-01-30T14:25:32;97271.00;;;2.01;100.00
44131;BME280;29792;48.726;9.248;2023-01-30T14:33:00;97272.66;;;2.02;100.00
44131;BME280;29792;48.726;9.248;2023-01-30T14:35:30;97283.63;;;2.01;100.00
44131;BME280;29792;48.726;9.248;2023-01-30T14:38:19;97290.25;;;2.03;100.00
44131;BME280;29792;48.726;9.248;2023-01-30T14:43:49;97291.06;;;2.04;100.00
44131;BME280;29792;48.726;9.248;2023-01-30T14:49:09;97302.13;;;2.01;100.00
44131;BME280;29792;48.726;9.248;2023-01-30T14:54:19;97309.06;;;1.96;100.00
44131;BME280;29792;48.726;9.248;2023-01-30T15:07:14;97308.94;;;1.99;100.00
44131;BME280;29792;48.726;9.248;2023-01-30T15:09:44;97313.88;;;2.02;100.00
44131;BME280;29792;48.726;9.248;2023-01-30T15:21:28;97333.38;;;2.39;100.00
44131;BME280;29792;48.726;9.248;2023-01-30T15:24:12;97325.66;;;2.42;100.00
44131;BME280;29792;48.726;9.248;2023-01-30T15:30:02;97342.59;;;2.40;100.00
44131;BME280;29792;48.726;9.248;2023-01-30T15:32:29;97340.06;;;2.40;100.00
44131;BME280;29792;48.726;9.248;2023-01-30T15:34:58;97339.63;;;2.51;100.00